Latest Observation

42 Stations

15 Minute Data | America/Los_Angeles
as of 9/1/26 8:14 AM PDT
Station Date Time Temp (°F) RH (%) Dew Pt (°F) Wind Spd (mph) Wind Dir (°) Wind Gust (mph) Latest Rain (In) Daily Rain (In) Daily Min Temp (°F) Daily Max Temp (°F) Daily Max Wind (mph)
Elk Mt. Farm 8/13/26 1500 85.6   7.4 - - - - - - - 51.4   1.1 85.6   7.4 -
Upper Lake 9/1/26 0800 56.9   3.6 82   5 51.5   5.1 2.5 W | 269 5.5   5.5 0.00 0.00 55.8   10.4 57.3   2.2 11.8   9.2
Scotts Valley 9/1/26 0800 56.8   3.2 78   8 50.0   5.9 2.2 W | 265 4.7   4.2 0.00 0.00 47.0   5.8 57.0   0.2 4.8   3.8
Scotts Valley-South (Bella Vista) 9/1/26 0800 56.3   4.8 73   5 47.8   6.5 2.6 WNW | 290 6.4   4.4 0.00 0.00 49.2   3.2 56.4   2.2 7.4   1.0
Kelseyville 9/1/26 0800 57.5   1.0 74   8 49.3   4.1 3.4 WSW | 251 8.1   6.6 0.00 0.00 47.7   1.4 57.7   0.6 9.4   5.5
Kelseyville Remote 9/1/26 0800 58.2   2.8 65   15 46.7   4.3 - - - 0.00 0.00 48.2   0.6 58.2   2.8 -
Kelseyville (Clark Drive) 9/1/26 0800 57.8   6.9 - - - - - 0.00 0.00 45.2   0.5 58.0   5.9 -
Kelsey Bench (Oaklea) 9/1/26 0800 56.5   2.0 71   16 47.3   4.8 4.0 WNW | 289 7.7   4.0 0.00 0.00 49.1   2.0 56.7   3.5 8.4   1.8
Smith Lane (Kelseyville-South) 9/1/26 0800 58.2   1.9 71   4 48.8   3.3 2.9 NW | 305 7.1   7.1 0.00 0.00 44.2   0.2 58.2   1.9 9.3   6.7
Bell Hill-West 9/1/26 0800 58.2   2.5 79   5 51.8   4.3 1.4 NW | 319 6.4   3.0 0.00 0.00 48.0   0.1 58.4   1.2 8.4   4.4
High Valley Ridgeline (Brassfield) 9/1/26 0800 53.7   8.4 81   17 47.9   1.5 8.8 WSW | 252 13.9   9.8 0.00 0.00 51.9   9.4 53.8   15.1 23.8   17.7
Wight Way (Adobe Creek) 9/1/26 0800 58.1   5.0 68   4 47.6   3.4 2.8 NW | 313 5.6   3.9 0.00 0.00 46.2   1.8 58.1   5.0 8.7   5.3
Ridgeline Top (Brassfield) 9/1/26 0800 54.1   10.6 - - - - - - - 51.6   9.1 54.4   13.5 -
Ridgeline Low (Brassfield) 9/1/26 0800 55.6   9.4 - - - - - - - 53.4   4.6 55.8   10.1 -
Long Valley (Shannon) 6/29/26 1400 84.9   4.6 25   1 44.9   3.2 2.9 ENE | 75 10.2   0.4 0.00 0.00 46.4   0.4 86.9   6.5 13.7   1.8
High Valley Winery 9/1/26 0800 56.6   2.4 74   14 48.5   3.4 4.5 W | 268 10.3   8.9 0.00 0.00 53.3   8.9 57.1   4.9 18.8   15.4
Round Mtn Rd. 9/1/26 0715 49.5   3.0 - - - - - - - 48.7   2.1 53.9   5.1 -
Circle O 9/1/26 0800 54.2   7.5 - - - - - - - 49.9   2.0 54.6   8.6 -
Robertsbridge Vineyards 9/1/26 0800 55.8   0.6 76   11 48.3   4.6 - - - - - 44.8   1.9 56.0   0.8 -
Urgency Vineyard 9/1/26 0800 56.0   3.8 73   21 47.4   5.2 3.1 WSW | 239 7.3   6.2 0.00 0.00 51.1   7.3 56.0   3.8 11.0   7.5
Red Hills (Beckstoffer) 9/1/26 0800 55.8   6.1 77   27 48.6   5.6 - - - 0.00 0.00 51.7   11.6 55.9   6.0 -
Winters (Shannon) 9/1/26 0800 54.7   3.8 74   21 46.6   5.1 4.3 W | 266 9.8   9.8 0.00 0.00 51.1   11.7 54.8   3.7 14.0   12.7
Secret Pond (Shannon) 9/1/26 0800 54.0   3.6 75   12 46.1   1.3 6.0 WNW | 297 11.7   11.7 0.00 0.00 48.4   5.4 54.3   3.4 19.7   18.6
Rolling Knolls (Shannon) 9/1/26 0800 55.9   8.0 72   17 47.0   2.2 3.2 WSW | 257 9.3   9.3 0.00 0.00 53.6   10.2 55.9   3.0 13.7   11.0
Lower Lake 9/1/26 0800 55.2   7.9 77   24 48.3   2.5 4.7 WSW | 256 9.9   8.3 0.00 0.00 53.2   1.9 55.3   8.2 16.3   11.0
Adamson Ranch 9/1/26 0800 53.2   2.5 84   10 48.3   0.9 1.5 SW | 229 4.2   2.0 0.00 0.00 44.1   1.6 55.0   0.6 7.5   5.3
Middletown (Diamond D) 9/1/26 0800 47.9   4.5 94   4 46.4   3.2 2.6 N | 355 4.1   1.8 0.00 0.00 41.5   2.6 51.7   3.2 4.9   0.6
Middletown-West (Domaine Helena) 9/1/26 0800 51.3   6.7 90   22 48.6   0.9 1.6 NE | 54 4.1   4.1 0.00 0.00 41.1   0.5 54.9   3.2 10.3   7.7
Middletown-South 9/1/26 0800 54.3   3.3 81   13 48.5   1.4 1.9 NNE | 15 4.6   2.6 0.00 0.00 45.1   0.2 55.4   3.5 12.7   10.2
Jim Davis (Langtry) 9/1/26 0800 51.8   4.9 94   16 50.1   0.0 1.1 N | 10 2.6   0.7 0.00 0.00 47.6   4.1 55.5   6.9 7.1   3.2
Napa Valley Basin 9/1/26 0800 48.2   1.8 96   8 47.0   0.7 0.5 SSW | 201 1.8   1.0 0.00 0.00 42.3   1.0 51.4   0.9 4.6   1.8
Lower Bohn 9/1/26 0800 49.2   5.3 81   16 43.6   0.6 0.2 NW | 315 1.2   0.1 0.00 0.00 38.6   4.1 50.4   5.6 4.8   1.5
Upper Bohn-North 9/1/26 0800 51.3   4.6 100   12 51.4   1.1 0.7 NNE | 27 2.8   0.7 0.00 0.00 46.3   2.2 55.2   2.0 3.7   0.1
Snell Peak Blk#9 9/1/26 0800 54.4   4.6 92   18 52.0   1.5 1.1 ENE | 63 2.0   1.5 0.00 0.00 49.6   2.0 54.9   7.3 4.5   2.6
Coyote Lake West 9/1/26 0800 51.6   5.1 95   15 50.3   0.6 0.2 WSW | 257 1.2   2.3 0.00 0.00 46.4   1.4 55.6   1.2 4.7   1.1
Coyote Lake Northeast 9/1/26 0800 52.9   1.6 90   3 50.2   0.6 - - - - - 48.5   3.6 55.4   4.3 -
Coyote Lake East 9/1/26 0800 50.5   1.2 94   6 48.8   0.5 - - - - - 44.7   0.1 52.4   0.7 -
Morgan Valley 9/1/26 0800 52.2   10.9 91   22 49.6   3.2 4.9 SSW | 204 8.1   5.5 0.00 0.00 50.7   9.5 54.8   12.8 19.8   11.2
Mine Pit North 9/1/26 0800 52.2   6.8 89   12 49.2   2.7 6.3 S | 181 12.3   2.2 - - 48.5   6.4 53.8   9.3 13.4   3.4
Mine Pit South 9/1/26 0800 52.0   5.5 90   12 49.2   1.4 2.5 SW | 219 5.2   0.4 0.00 0.00 49.6   4.0 53.2   12.8 12.3   4.8
Cow Mountain 9/1/26 0800 46.6   16.9 - - 8.0 W | 265 17.5   16.0 0.00 0.05 46.2   15.2 47.4   22.2 32.2   25.9
Ukiah-SE (Ruddick) 9/1/26 0800 60.6   9.6 69   13 50.4   4.9 0.6 NNE | 24 1.9   0.2 0.00 0.00 58.9   11.9 61.0   7.7 11.7   5.4
Max     60.6 100 52.0 8.8 - 17.5 0.00 0.05 58.9 61.0 32.2
Avg     54.1 81 48.6 3.0 - 6.6 0.00 - - - -
Min     46.6 65 43.6 0.2 - 1.2 0.00 0.00 38.6 47.4 3.7